Time;durP1;ratioP1;P1;durP2;ratioP2;P2;SDS_P1;SDS_P2;PMS_P1;PMS_P2;Temp;Humidity;BMP_temperature;BMP_pressure;BME280_temperature;BME280_humidity;BME280_pressure;Samples;Min_cycle;Max_cycle;Signal;HPM_P1;HPM_P2
2022/06/30 00:00:10;;;;;;;11.50;6.30;;;23.10;78.30;;;;;;1833293;78;21124;-69
2022/06/30 00:02:41;;;;;;;15.68;6.08;;;23.10;78.40;;;;;;1833290;78;21078;-69
2022/06/30 00:05:10;;;;;;;10.68;6.85;;;23.10;78.40;;;;;;1833259;78;21054;-69
2022/06/30 00:07:40;;;;;;;10.20;6.92;;;23.10;78.40;;;;;;1833339;77;21030;-69
2022/06/30 00:10:11;;;;;;;10.48;6.45;;;23.10;78.40;;;;;;1833215;78;21108;-69
2022/06/30 00:12:41;;;;;;;10.80;6.30;;;23.00;78.30;;;;;;1833335;78;21566;-69
2022/06/30 00:15:11;;;;;;;10.85;5.97;;;23.00;78.30;;;;;;1833256;77;21026;-69
2022/06/30 00:17:41;;;;;;;17.15;6.95;;;23.00;78.40;;;;;;1833238;78;21073;-69
2022/06/30 00:20:11;;;;;;;16.50;7.25;;;23.00;78.40;;;;;;1833268;78;21120;-70
2022/06/30 00:22:41;;;;;;;17.20;5.87;;;22.90;78.30;;;;;;1833255;78;21022;-69
2022/06/30 00:25:13;;;;;;;15.63;6.53;;;22.90;78.30;;;;;;1833372;78;21030;-69
2022/06/30 00:27:42;;;;;;;13.22;5.78;;;22.90;78.40;;;;;;1833443;78;21038;-70
2022/06/30 00:30:12;;;;;;;16.50;6.78;;;22.90;78.60;;;;;;1833352;78;21062;-69
2022/06/30 00:32:41;;;;;;;11.25;5.72;;;22.90;78.60;;;;;;1833309;78;21050;-69
2022/06/30 00:35:11;;;;;;;8.88;6.20;;;22.90;78.80;;;;;;1833373;78;21066;-69
2022/06/30 00:37:41;;;;;;;13.88;6.75;;;22.90;78.60;;;;;;1833371;78;21144;-69
2022/06/30 00:40:11;;;;;;;10.98;5.60;;;22.90;78.40;;;;;;1833345;78;21124;-69
2022/06/30 00:42:40;;;;;;;11.70;6.60;;;22.90;78.40;;;;;;1833369;78;21054;-70
2022/06/30 00:45:11;;;;;;;12.33;6.55;;;22.90;78.40;;;;;;1833356;78;21073;-70
2022/06/30 00:47:40;;;;;;;13.28;6.90;;;22.80;78.30;;;;;;1833333;78;21030;-70
2022/06/30 00:50:10;;;;;;;21.57;7.12;;;22.80;78.20;;;;;;1833241;78;21481;-70
2022/06/30 00:52:40;;;;;;;13.78;6.72;;;22.70;78.20;;;;;;1833158;78;21054;-70
2022/06/30 00:55:11;;;;;;;11.25;6.67;;;22.70;78.30;;;;;;1833233;78;21120;-70
2022/06/30 00:57:42;;;;;;;19.70;6.90;;;22.70;78.30;;;;;;1833317;78;21062;-70
2022/06/30 01:00:13;;;;;;;13.70;7.35;;;22.60;78.20;;;;;;1833466;78;21046;-70
2022/06/30 01:02:43;;;;;;;17.00;7.45;;;22.60;78.10;;;;;;1833464;78;21096;-70
2022/06/30 01:05:12;;;;;;;11.53;5.60;;;22.60;78.10;;;;;;1833347;78;21116;-70
2022/06/30 01:07:43;;;;;;;14.35;6.42;;;22.50;78.40;;;;;;1833334;78;21069;-70
2022/06/30 01:13:00;;;;;;;17.75;7.45;;;22.60;78.30;;;;;;1833365;78;21124;-70
2022/06/30 01:15:29;;;;;;;13.20;6.15;;;22.50;77.90;;;;;;1833374;78;21050;-70
2022/06/30 01:17:59;;;;;;;15.45;6.60;;;22.50;78.10;;;;;;1833309;78;21074;-69
2022/06/30 01:20:30;;;;;;;11.05;5.55;;;22.40;78.20;;;;;;1833356;78;21038;-69
2022/06/30 01:23:01;;;;;;;13.58;5.67;;;22.40;78.30;;;;;;1833333;78;21054;-69
2022/06/30 01:25:31;;;;;;;11.03;6.15;;;22.40;78.30;;;;;;1833335;78;21050;-69
2022/06/30 01:28:00;;;;;;;11.95;5.80;;;22.40;78.40;;;;;;1833325;78;21054;-69
2022/06/30 01:30:30;;;;;;;11.85;6.28;;;22.40;78.40;;;;;;1833337;77;21054;-69
2022/06/30 01:33:00;;;;;;;12.78;5.35;;;22.40;78.50;;;;;;1833402;78;21120;-69
2022/06/30 01:35:29;;;;;;;9.75;5.95;;;22.40;78.60;;;;;;1833325;78;21030;-69
2022/06/30 01:38:00;;;;;;;10.15;5.10;;;22.30;78.00;;;;;;1833396;77;21066;-69
2022/06/30 01:40:33;;;;;;;10.00;5.65;;;22.30;78.40;;;;;;1833443;78;21054;-69
2022/06/30 01:43:05;;;;;;;11.48;5.85;;;22.30;78.70;;;;;;1833428;78;21135;-71
2022/06/30 01:45:35;;;;;;;12.50;6.40;;;22.20;78.70;;;;;;1833309;78;21022;-71
2022/06/30 01:48:05;;;;;;;11.25;5.90;;;22.20;79.40;;;;;;1833420;78;21050;-71
2022/06/30 01:50:35;;;;;;;9.88;6.30;;;22.20;78.80;;;;;;1833262;78;21097;-71
2022/06/30 01:53:05;;;;;;;13.08;6.22;;;22.20;78.90;;;;;;1833302;78;21128;-71
2022/06/30 01:55:34;;;;;;;9.75;6.40;;;22.20;78.60;;;;;;1833310;78;21116;-71
2022/06/30 01:58:03;;;;;;;11.22;6.35;;;22.20;78.80;;;;;;1833405;78;21455;-71
2022/06/30 02:00:33;;;;;;;15.00;6.80;;;22.10;78.80;;;;;;1833345;78;21054;-71
2022/06/30 02:03:02;;;;;;;10.28;6.10;;;22.10;78.90;;;;;;1833293;78;21034;-71
2022/06/30 02:05:32;;;;;;;11.45;6.45;;;22.00;79.00;;;;;;1836398;77;21133;-71
2022/06/30 02:08:01;;;;;;;11.05;6.17;;;22.00;78.90;;;;;;1836795;78;21116;-71
2022/06/30 02:10:31;;;;;;;8.30;6.33;;;22.00;78.70;;;;;;1836781;78;21119;-71
2022/06/30 02:13:00;;;;;;;13.05;6.72;;;22.00;78.50;;;;;;1836808;78;21062;-71
2022/06/30 02:15:33;;;;;;;7.90;5.45;;;21.90;78.60;;;;;;1836784;78;21078;-71
2022/06/30 02:18:05;;;;;;;10.18;5.45;;;21.90;78.80;;;;;;1836940;78;21022;-71
2022/06/30 02:20:35;;;;;;;18.73;7.60;;;22.00;79.10;;;;;;1836812;78;21050;-71
2022/06/30 02:23:05;;;;;;;11.10;6.53;;;22.00;79.10;;;;;;1837020;78;21082;-71
2022/06/30 02:25:35;;;;;;;12.55;5.50;;;21.90;78.80;;;;;;1836796;78;21029;-71
2022/06/30 02:28:05;;;;;;;10.60;6.03;;;21.90;78.90;;;;;;1836865;78;21141;-71
2022/06/30 02:30:35;;;;;;;7.03;5.60;;;21.90;79.60;;;;;;1836970;78;21077;-71
2022/06/30 02:33:05;;;;;;;10.70;5.08;;;21.90;79.20;;;;;;1836903;78;21179;-71
2022/06/30 02:35:34;;;;;;;12.53;5.53;;;21.90;79.30;;;;;;1836907;78;21042;-70
2022/06/30 02:38:11;;;;;;;11.18;5.10;;;21.90;79.30;;;;;;1836883;78;21148;-70
2022/06/30 02:40:41;;;;;;;11.28;6.25;;;21.90;79.40;;;;;;1836955;78;21045;-69
2022/06/30 02:43:10;;;;;;;15.58;6.35;;;21.90;79.30;;;;;;1836856;78;21045;-70
2022/06/30 02:45:40;;;;;;;15.18;6.85;;;22.00;79.30;;;;;;1836827;78;21053;-70
2022/06/30 02:48:32;;;;;;;9.25;4.85;;;22.10;79.20;;;;;;1836893;78;21130;-69
2022/06/30 02:51:02;;;;;;;12.50;6.10;;;22.20;78.90;;;;;;1768002;81;21192;-70
2022/06/30 02:53:31;;;;;;;9.53;6.35;;;22.20;78.60;;;;;;1768041;81;21190;-69
2022/06/30 02:56:00;;;;;;;17.42;5.87;;;22.30;78.40;;;;;;1768007;81;21064;-70
2022/06/30 02:58:30;;;;;;;13.55;6.05;;;22.30;78.20;;;;;;1768062;81;21068;-70
2022/06/30 03:00:59;;;;;;;12.05;6.03;;;22.30;78.20;;;;;;1768001;81;21072;-70
2022/06/30 03:03:29;;;;;;;15.63;6.50;;;22.40;78.10;;;;;;1768009;81;21040;-69
2022/06/30 03:05:58;;;;;;;10.90;5.53;;;22.30;77.70;;;;;;1767987;81;21127;-69
2022/06/30 03:08:28;;;;;;;7.28;4.80;;;22.30;77.30;;;;;;1768017;81;21074;-69
2022/06/30 03:10:58;;;;;;;6.55;4.90;;;22.30;77.40;;;;;;1767920;81;21065;-70
2022/06/30 03:13:28;;;;;;;11.25;4.78;;;22.40;77.00;;;;;;1768016;81;21068;-70
2022/06/30 03:15:57;;;;;;;7.97;4.60;;;22.40;76.50;;;;;;1767933;81;21065;-70
2022/06/30 03:18:26;;;;;;;7.42;4.15;;;22.40;76.40;;;;;;1768062;81;21484;-70
2022/06/30 03:20:56;;;;;;;5.90;3.62;;;22.50;76.10;;;;;;1768017;81;21064;-70
2022/06/30 03:23:26;;;;;;;9.28;4.15;;;22.50;75.30;;;;;;1767981;81;21143;-70
2022/06/30 03:25:56;;;;;;;10.00;4.62;;;22.60;74.70;;;;;;1767993;81;21084;-70
2022/06/30 03:28:25;;;;;;;7.70;3.90;;;22.60;74.40;;;;;;1768006;81;21084;-70
2022/06/30 03:30:54;;;;;;;10.32;3.55;;;22.70;73.90;;;;;;1767990;81;21060;-70
2022/06/30 03:33:24;;;;;;;8.08;3.72;;;22.70;73.20;;;;;;1768127;81;21072;-70
2022/06/30 03:35:54;;;;;;;6.22;3.87;;;22.70;73.70;;;;;;1768022;81;21130;-71
2022/06/30 03:38:23;;;;;;;11.35;4.00;;;22.80;73.10;;;;;;1768056;81;21064;-70
2022/06/30 03:40:53;;;;;;;8.00;4.00;;;22.80;73.30;;;;;;1767942;81;21048;-71
2022/06/30 03:43:22;;;;;;;7.87;4.15;;;22.90;73.30;;;;;;1767931;81;21151;-71
2022/06/30 03:45:52;;;;;;;8.43;4.03;;;23.10;72.90;;;;;;1768076;81;21103;-72
2022/06/30 03:48:21;;;;;;;6.87;3.92;;;23.20;72.50;;;;;;1767983;81;21170;-71
2022/06/30 03:50:51;;;;;;;14.98;4.30;;;23.30;72.20;;;;;;1763755;80;21107;-72
2022/06/30 03:53:20;;;;;;;9.03;4.12;;;23.40;71.80;;;;;;1762507;81;21127;-71
2022/06/30 03:55:50;;;;;;;8.23;4.37;;;23.40;71.80;;;;;;1762523;81;21057;-71
2022/06/30 03:58:19;;;;;;;13.93;7.78;;;23.60;72.00;;;;;;1762570;81;21112;-71
2022/06/30 04:00:49;;;;;;;43.95;22.00;;;23.70;71.60;;;;;;1762519;81;21143;-71
2022/06/30 04:03:18;;;;;;;11.03;6.17;;;23.80;71.20;;;;;;1762567;81;21069;-71
2022/06/30 04:05:48;;;;;;;8.73;5.65;;;23.90;71.10;;;;;;1762510;81;21065;-71
2022/06/30 04:08:17;;;;;;;21.23;4.33;;;24.00;71.00;;;;;;1762603;81;21088;-71
2022/06/30 04:10:47;;;;;;;17.52;4.45;;;24.10;70.20;;;;;;1762497;81;21048;-71
2022/06/30 04:13:16;;;;;;;6.40;3.55;;;24.20;69.90;;;;;;1762739;81;21511;-70
2022/06/30 04:15:46;;;;;;;6.65;3.50;;;24.20;70.00;;;;;;1762634;81;21084;-71
2022/06/30 04:18:15;;;;;;;8.30;3.62;;;24.20;69.40;;;;;;1762474;81;21063;-71
2022/06/30 04:20:45;;;;;;;8.50;3.80;;;24.20;68.80;;;;;;1762494;81;21065;-72
2022/06/30 04:23:14;;;;;;;9.40;3.45;;;24.20;68.80;;;;;;1762514;81;21064;-71
2022/06/30 04:25:44;;;;;;;5.80;2.85;;;24.30;68.60;;;;;;1762487;81;21088;-71
2022/06/30 04:28:13;;;;;;;7.05;3.10;;;24.30;68.00;;;;;;1762577;81;21143;-71
2022/06/30 04:33:30;;;;;;;5.45;3.05;;;24.50;67.70;;;;;;1762502;81;21217;-72
2022/06/30 04:36:00;;;;;;;7.97;3.75;;;24.60;67.60;;;;;;1762525;81;21064;-72
2022/06/30 04:38:29;;;;;;;11.05;3.58;;;24.70;66.80;;;;;;1762540;81;21123;-72
2022/06/30 04:43:46;;;;;;;14.78;4.00;;;24.70;66.10;;;;;;1762692;81;21151;-71
2022/06/30 04:46:15;;;;;;;14.13;3.90;;;24.80;66.30;;;;;;1762515;81;21123;-71
2022/06/30 04:48:45;;;;;;;7.53;3.35;;;24.80;65.90;;;;;;1762497;81;21044;-71
2022/06/30 04:51:15;;;;;;;7.80;4.10;;;24.80;65.80;;;;;;1755586;80;21089;-71
2022/06/30 04:53:44;;;;;;;8.88;3.47;;;24.90;66.10;;;;;;1752087;82;21073;-71
2022/06/30 04:56:14;;;;;;;15.13;5.03;;;25.00;66.20;;;;;;1752072;82;21069;-70
2022/06/30 04:58:44;;;;;;;7.35;3.75;;;25.10;66.00;;;;;;1751983;82;21057;-71
2022/06/30 05:01:14;;;;;;;8.40;3.30;;;25.20;65.90;;;;;;1752143;82;21069;-71
2022/06/30 05:03:43;;;;;;;9.60;4.70;;;25.30;63.80;;;;;;1752045;82;21177;-71
2022/06/30 05:06:12;;;;;;;9.48;3.42;;;25.20;63.90;;;;;;1752098;82;21542;-71
2022/06/30 05:08:42;;;;;;;7.45;3.30;;;25.30;63.70;;;;;;1752084;82;21069;-71
2022/06/30 05:11:13;;;;;;;7.55;3.62;;;25.30;63.50;;;;;;1751989;82;21132;-71
2022/06/30 05:13:44;;;;;;;6.62;3.77;;;25.30;63.20;;;;;;1905601;74;21073;-70
2022/06/30 05:16:14;;;;;;;10.03;4.60;;;25.40;63.50;;;;;;1917955;75;21096;-71
2022/06/30 05:18:43;;;;;;;8.98;3.37;;;25.40;63.40;;;;;;1917962;75;21029;-71
2022/06/30 05:21:13;;;;;;;9.93;3.50;;;25.50;63.70;;;;;;1917975;75;21121;-71
2022/06/30 05:26:28;;;;;;;14.58;5.78;;;25.50;62.70;;;;;;1918067;75;21092;-71
2022/06/30 05:26:33;;;;;;;5.45;3.50;;;25.50;62.50;;;;;;1913073;75;21014;-71
2022/06/30 05:29:03;;;;;;;10.50;4.15;;;25.50;62.90;;;;;;1918049;75;21461;-71
2022/06/30 05:31:32;;;;;;;9.33;3.47;;;25.60;63.30;;;;;;1917777;75;21002;-71
2022/06/30 05:36:55;;;;;;;25.75;5.12;;;25.70;62.50;;;;;;1931871;74;21100;-71
2022/06/30 05:39:24;;;;;;;9.53;3.37;;;25.80;62.40;;;;;;1925682;74;21123;-71
2022/06/30 05:41:54;;;;;;;5.28;3.17;;;25.90;61.80;;;;;;1925503;74;21232;-71
2022/06/30 05:44:24;;;;;;;9.28;3.37;;;25.90;61.60;;;;;;1925598;74;21052;-71
2022/06/30 05:46:54;;;;;;;8.75;3.20;;;26.00;61.80;;;;;;1925676;74;21017;-71
2022/06/30 05:49:24;;;;;;;6.70;3.58;;;26.10;61.70;;;;;;1925635;74;21010;-71
2022/06/30 05:51:54;;;;;;;8.60;3.72;;;26.30;61.20;;;;;;1925596;73;21095;-71
2022/06/30 05:54:23;;;;;;;5.03;3.10;;;26.30;60.90;;;;;;1925559;74;21256;-71
2022/06/30 05:56:53;;;;;;;5.97;3.08;;;26.40;60.40;;;;;;1925766;74;21498;-71
2022/06/30 05:59:28;;;;;;;8.03;3.20;;;26.40;59.70;;;;;;1818549;77;21134;-71
2022/06/30 06:01:57;;;;;;;6.72;3.47;;;26.40;59.80;;;;;;1823226;78;21103;-72
2022/06/30 06:04:27;;;;;;;8.75;3.37;;;26.40;60.00;;;;;;1823182;78;21133;-71
2022/06/30 06:06:57;;;;;;;10.82;3.65;;;26.40;60.70;;;;;;1823323;79;21091;-70
2022/06/30 06:09:27;;;;;;;7.78;2.90;;;26.40;60.40;;;;;;1823097;79;21040;-71
2022/06/30 06:11:56;;;;;;;7.03;3.37;;;26.50;60.30;;;;;;1823004;79;21122;-71
2022/06/30 06:14:25;;;;;;;7.22;2.80;;;26.60;60.00;;;;;;1823029;79;21023;-71
2022/06/30 06:16:54;;;;;;;7.55;2.92;;;26.70;60.20;;;;;;1823066;79;21040;-71
2022/06/30 06:19:24;;;;;;;5.20;3.35;;;26.70;60.00;;;;;;1822998;79;21040;-71
2022/06/30 06:21:53;;;;;;;6.97;3.22;;;26.80;59.30;;;;;;1823170;79;21114;-71
2022/06/30 06:24:23;;;;;;;4.08;3.40;;;26.70;59.20;;;;;;1823123;77;21043;-71
2022/06/30 06:26:52;;;;;;;5.28;3.00;;;26.70;59.50;;;;;;1823066;79;21023;-71
2022/06/30 06:29:22;;;;;;;8.68;3.30;;;26.80;59.30;;;;;;1823131;79;21055;-72
2022/06/30 06:31:51;;;;;;;5.05;3.05;;;26.90;59.30;;;;;;1822894;79;21194;-71
2022/06/30 06:34:21;;;;;;;8.43;3.30;;;27.00;59.10;;;;;;1822976;79;21052;-71
2022/06/30 06:36:51;;;;;;;7.53;4.37;;;27.10;58.20;;;;;;1823041;79;21490;-71
2022/06/30 06:39:20;;;;;;;10.05;4.35;;;27.10;58.50;;;;;;1823010;79;21047;-71
2022/06/30 06:41:50;;;;;;;10.38;3.90;;;27.20;58.60;;;;;;1823064;79;21063;-70
2022/06/30 06:44:19;;;;;;;9.35;3.27;;;27.30;58.70;;;;;;1822994;79;21047;-70
2022/06/30 06:46:49;;;;;;;6.17;3.45;;;27.40;58.20;;;;;;1823025;77;21110;-71
2022/06/30 06:49:18;;;;;;;5.53;3.33;;;27.40;57.90;;;;;;1823009;79;21058;-71
2022/06/30 06:51:47;;;;;;;6.05;2.83;;;27.50;58.30;;;;;;1822926;79;21082;-71
2022/06/30 06:54:17;;;;;;;9.10;3.67;;;27.60;58.60;;;;;;1822955;79;21051;-71
2022/06/30 06:56:46;;;;;;;7.05;3.42;;;27.70;57.90;;;;;;1822966;79;21036;-71
2022/06/30 06:59:16;;;;;;;7.80;3.58;;;27.80;57.50;;;;;;1835242;77;21088;-71
2022/06/30 07:01:46;;;;;;;4.72;3.05;;;27.80;57.50;;;;;;1848136;78;21082;-71
2022/06/30 07:04:15;;;;;;;5.87;3.05;;;27.80;57.10;;;;;;1786579;80;21070;-71
2022/06/30 07:06:48;;;;;;;8.68;3.22;;;27.90;56.90;;;;;;1827921;78;21130;-70
2022/06/30 07:09:16;;;;;;;7.58;3.22;;;27.80;56.40;;;;;;1842237;78;21075;-71
2022/06/30 07:11:45;;;;;;;4.78;3.02;;;27.70;57.20;;;;;;1842206;78;21043;-70
2022/06/30 07:14:15;;;;;;;4.60;3.42;;;27.80;57.40;;;;;;1842351;78;21048;-70
2022/06/30 07:16:44;;;;;;;5.70;3.75;;;27.80;57.50;;;;;;1842291;78;21048;-70
2022/06/30 07:19:14;;;;;;;15.45;4.47;;;27.90;57.30;;;;;;1842329;78;21023;-70
2022/06/30 07:21:43;;;;;;;4.97;2.62;;;28.00;57.30;;;;;;1842145;78;21130;-70
2022/06/30 07:24:13;;;;;;;8.20;3.30;;;28.10;56.30;;;;;;1842242;77;21102;-70
2022/06/30 07:26:42;;;;;;;11.55;3.90;;;28.10;56.40;;;;;;1842182;78;21110;-70
2022/06/30 07:29:11;;;;;;;7.28;3.58;;;28.10;56.70;;;;;;1842298;78;21474;-70
2022/06/30 07:31:41;;;;;;;8.25;3.00;;;28.20;56.70;;;;;;1842130;78;21039;-70
2022/06/30 07:34:10;;;;;;;3.55;2.47;;;28.30;56.40;;;;;;1842268;78;21039;-70
2022/06/30 07:36:41;;;;;;;9.20;3.10;;;28.30;56.10;;;;;;1842277;78;21109;-70
2022/06/30 07:39:10;;;;;;;5.87;2.70;;;28.30;55.70;;;;;;1842330;78;21048;-71
2022/06/30 07:41:40;;;;;;;5.33;2.77;;;28.30;55.90;;;;;;1842293;78;21141;-71
2022/06/30 07:44:10;;;;;;;8.30;3.12;;;28.30;56.50;;;;;;1842210;78;21047;-71
2022/06/30 07:46:39;;;;;;;3.98;3.27;;;28.30;55.90;;;;;;1842169;78;21118;-71
2022/06/30 07:49:08;;;;;;;3.95;3.30;;;28.20;56.40;;;;;;1842315;78;21016;-71
2022/06/30 07:51:38;;;;;;;6.97;2.65;;;28.20;56.30;;;;;;1842289;78;21111;-71
2022/06/30 07:54:08;;;;;;;5.60;2.35;;;28.30;56.30;;;;;;1842209;78;21019;-71
2022/06/30 07:56:37;;;;;;;5.20;2.60;;;28.30;56.30;;;;;;1842181;78;21110;-71
2022/06/30 07:59:07;;;;;;;3.62;2.42;;;28.20;56.20;;;;;;1842186;76;21048;-70
2022/06/30 08:01:36;;;;;;;4.72;2.65;;;28.30;56.90;;;;;;1842249;78;21118;-70
2022/06/30 08:04:06;;;;;;;3.55;2.65;;;28.40;56.10;;;;;;1842229;78;21117;-71
2022/06/30 08:06:35;;;;;;;7.35;3.37;;;28.50;56.30;;;;;;1842182;78;21051;-71
2022/06/30 08:09:05;;;;;;;6.00;2.80;;;28.70;56.20;;;;;;1842278;78;21106;-70
2022/06/30 08:11:34;;;;;;;6.17;2.87;;;28.70;55.60;;;;;;1842133;78;21043;-70
2022/06/30 08:14:04;;;;;;;6.03;3.10;;;28.70;55.30;;;;;;1842260;78;21133;-70
2022/06/30 08:16:33;;;;;;;4.97;2.75;;;28.60;55.30;;;;;;1842354;78;21052;-70
2022/06/30 08:19:03;;;;;;;3.67;3.30;;;28.70;56.00;;;;;;1842342;78;21097;-70
2022/06/30 08:21:32;;;;;;;9.60;3.00;;;28.80;56.20;;;;;;1842374;78;21049;-70
2022/06/30 08:24:02;;;;;;;8.63;2.83;;;28.90;55.00;;;;;;1842062;78;21122;-71
2022/06/30 08:26:32;;;;;;;4.62;3.15;;;28.90;55.10;;;;;;1854266;76;21007;-68
2022/06/30 08:29:02;;;;;;;13.45;3.40;;;28.90;55.10;;;;;;1858882;77;21124;-68
2022/06/30 08:31:33;;;;;;;6.47;2.95;;;28.90;55.20;;;;;;1854976;76;21030;-72
2022/06/30 08:34:02;;;;;;;4.35;2.80;;;28.90;55.00;;;;;;1822528;78;21005;-64
2022/06/30 08:36:32;;;;;;;4.10;2.83;;;28.90;55.30;;;;;;1826475;76;21148;-61
2022/06/30 08:39:01;;;;;;;9.13;4.08;;;28.90;55.10;;;;;;1817955;77;21446;-69
2022/06/30 08:44:25;;;;;;;6.10;4.25;;;29.00;53.60;;;;;;1818887;78;21198;-67
2022/06/30 08:47:11;;;;;;;6.40;3.60;;;29.00;53.70;;;;;;1827132;77;21349;-60
2022/06/30 08:49:50;;;;;;;7.50;3.37;;;29.10;53.40;;;;;;1826702;78;21123;-67
2022/06/30 08:52:33;;;;;;;9.43;2.98;;;29.30;53.50;;;;;;1814874;78;22051;-62
2022/06/30 08:55:14;;;;;;;6.50;3.05;;;29.30;53.10;;;;;;1848105;76;22107;-61
2022/06/30 08:57:58;;;;;;;3.77;3.22;;;29.50;52.40;;;;;;1839821;76;21087;-63
2022/06/30 09:00:43;;;;;;;7.87;3.52;;;29.50;51.60;;;;;;1856861;75;21227;-61
2022/06/30 09:03:14;;;;;;;7.83;3.83;;;29.50;51.60;;;;;;1836165;78;21120;-62
2022/06/30 09:05:47;;;;;;;6.78;3.30;;;29.40;51.30;;;;;;1835528;78;21122;-62
2022/06/30 09:08:17;;;;;;;7.50;4.55;;;29.40;51.30;;;;;;1807930;79;21085;-64
2022/06/30 09:10:51;;;;;;;6.85;3.67;;;29.50;51.40;;;;;;1833237;78;21560;-61
2022/06/30 09:13:21;;;;;;;8.50;3.33;;;29.60;51.60;;;;;;1833774;78;21121;-60
2022/06/30 09:15:50;;;;;;;9.30;3.52;;;29.60;50.70;;;;;;1833491;78;21173;-62
2022/06/30 09:18:28;;;;;;;6.22;3.55;;;29.70;51.30;;;;;;1833540;78;21804;-66
2022/06/30 09:20:59;;;;;;;8.58;4.20;;;29.70;51.10;;;;;;1833205;78;21098;-61
2022/06/30 09:23:30;;;;;;;10.78;3.85;;;29.80;51.00;;;;;;1834799;78;21054;-62
2022/06/30 09:26:02;;;;;;;8.88;3.37;;;29.80;50.80;;;;;;1834554;78;21058;-62
2022/06/30 09:28:46;;;;;;;7.78;3.60;;;29.80;50.30;;;;;;1834681;78;21050;-65
2022/06/30 09:31:17;;;;;;;6.47;3.37;;;29.80;50.80;;;;;;1834531;78;21124;-69
2022/06/30 09:33:47;;;;;;;7.42;3.10;;;29.90;51.10;;;;;;1831708;78;21519;-65
2022/06/30 09:36:27;;;;;;;5.20;2.98;;;30.00;50.80;;;;;;1834727;78;21142;-63
2022/06/30 09:39:08;;;;;;;11.50;3.55;;;30.20;50.10;;;;;;1834609;78;21086;-63
2022/06/30 09:41:42;;;;;;;5.85;3.00;;;30.20;50.10;;;;;;1834506;78;21144;-61
2022/06/30 09:44:23;;;;;;;5.75;3.20;;;30.30;50.60;;;;;;1834573;78;21098;-62
2022/06/30 09:47:01;;;;;;;7.83;3.08;;;30.40;49.80;;;;;;1834454;78;21050;-64
2022/06/30 09:49:36;;;;;;;5.17;3.10;;;30.50;49.80;;;;;;1834666;78;21105;-61
2022/06/30 09:52:05;;;;;;;;;;;30.60;48.70;;;;;;1837258;78;21030;-68
2022/06/30 09:54:35;;;;;;;7.53;2.98;;;30.50;48.20;;;;;;1834418;78;20221;-64
2022/06/30 09:57:06;;;;;;;5.05;3.00;;;30.50;49.30;;;;;;1834604;78;21090;-63
2022/06/30 09:59:36;;;;;;;4.67;3.10;;;30.60;49.30;;;;;;1833456;78;21058;-64
2022/06/30 10:02:06;;;;;;;6.62;3.15;;;30.60;48.90;;;;;;1811196;79;21047;-61
2022/06/30 10:04:54;;;;;;;16.30;3.77;;;30.70;49.00;;;;;;1811098;79;21125;-62
2022/06/30 10:07:23;;;;;;;6.28;3.00;;;30.80;48.60;;;;;;1805786;79;21184;-62
2022/06/30 10:09:54;;;;;;;6.90;2.83;;;30.80;47.90;;;;;;1811200;79;21043;-65
2022/06/30 10:12:25;;;;;;;5.53;3.47;;;30.80;47.40;;;;;;1811167;79;21075;-66
2022/06/30 10:14:55;;;;;;;6.78;3.00;;;30.90;47.40;;;;;;1811156;79;21078;-63
2022/06/30 10:17:30;;;;;;;6.10;2.77;;;30.90;46.70;;;;;;1811197;79;21075;-62
2022/06/30 10:20:00;;;;;;;3.77;3.25;;;30.90;46.30;;;;;;1811342;79;21071;-62
2022/06/30 10:22:30;;;;;;;5.60;2.77;;;31.00;46.10;;;;;;1811409;79;21114;-64
2022/06/30 10:25:00;;;;;;;5.45;3.25;;;31.00;45.80;;;;;;1811219;79;21189;-63
2022/06/30 10:27:29;;;;;;;3.40;3.05;;;31.10;46.30;;;;;;1811215;79;21224;-64
2022/06/30 10:30:13;;;;;;;5.97;2.92;;;31.10;46.40;;;;;;1811302;79;21181;-67
2022/06/30 10:32:54;;;;;;;4.60;3.12;;;31.20;45.80;;;;;;1811314;79;21161;-63
2022/06/30 10:35:44;;;;;;;5.65;2.77;;;31.20;45.60;;;;;;1811321;79;21071;-65
2022/06/30 10:38:28;;;;;;;10.53;3.33;;;31.30;46.30;;;;;;1811376;79;21464;-63
2022/06/30 10:41:10;;;;;;;6.42;3.15;;;31.40;45.70;;;;;;1811381;79;21122;-60
2022/06/30 10:44:08;;;;;;;4.50;3.08;;;31.40;45.80;;;;;;1810478;79;21616;-63
2022/06/30 10:46:48;;;;;;;5.97;2.72;;;31.50;44.90;;;;;;1811054;79;21106;-64
2022/06/30 10:49:20;;;;;;;3.65;3.35;;;31.40;44.60;;;;;;1811271;79;21105;-62
2022/06/30 10:51:49;;;;;;;5.58;3.27;;;31.50;44.60;;;;;;1811193;79;21118;-66
2022/06/30 10:54:35;;;;;;;6.78;3.12;;;31.60;44.70;;;;;;1810995;79;21138;-70
2022/06/30 10:57:04;;;;;;;7.37;3.27;;;31.60;44.50;;;;;;1811281;79;21129;-68
2022/06/30 10:59:39;;;;;;;10.68;3.15;;;31.60;44.70;;;;;;1811309;79;21130;-63
2022/06/30 11:02:23;;;;;;;5.78;3.00;;;31.60;44.20;;;;;;1823672;78;21541;-66
2022/06/30 11:04:54;;;;;;;4.23;3.23;;;31.60;43.90;;;;;;1826184;78;21161;-66
2022/06/30 11:07:27;;;;;;;6.10;3.12;;;31.60;43.60;;;;;;1820186;78;21508;-67
2022/06/30 11:09:57;;;;;;;4.47;3.33;;;31.60;44.20;;;;;;1825819;78;21035;-63
2022/06/30 11:12:37;;;;;;;8.80;3.30;;;31.70;43.90;;;;;;1826021;78;21204;-67
2022/06/30 11:15:06;;;;;;;9.23;3.27;;;31.70;43.80;;;;;;1825698;78;21140;-67
2022/06/30 11:17:38;;;;;;;8.90;3.47;;;31.70;43.00;;;;;;1825825;78;21050;-66
2022/06/30 11:20:10;;;;;;;7.95;2.92;;;31.80;44.20;;;;;;1825789;78;21074;-68
2022/06/30 11:22:41;;;;;;;12.05;3.40;;;31.80;43.60;;;;;;1825631;78;21098;-64
2022/06/30 11:27:17;;;;;;;5.37;2.77;;;31.80;43.00;;;;;;1825890;78;21051;-72
2022/06/30 11:27:44;;;;;;;7.37;3.92;;;31.80;42.50;;;;;;1824061;78;21160;-67
2022/06/30 11:30:14;;;;;;;4.05;2.90;;;31.80;41.80;;;;;;1825647;78;21125;-65
2022/06/30 11:32:43;;;;;;;5.87;3.20;;;31.70;41.30;;;;;;1825841;78;21047;-68
2022/06/30 11:35:13;;;;;;;5.17;2.67;;;31.70;41.30;;;;;;1825794;78;21066;-66
2022/06/30 11:37:42;;;;;;;5.83;2.90;;;31.70;41.50;;;;;;1825611;78;21141;-65
2022/06/30 11:40:13;;;;;;;3.55;3.00;;;31.70;41.30;;;;;;1825693;78;21109;-65
2022/06/30 11:42:42;;;;;;;9.25;2.92;;;31.80;40.80;;;;;;1825941;78;21129;-66
2022/06/30 11:45:29;;;;;;;4.90;2.95;;;31.80;41.50;;;;;;1825698;78;21094;-65
2022/06/30 11:48:03;;;;;;;10.05;2.87;;;31.90;41.50;;;;;;1824702;78;21050;-67
2022/06/30 11:50:33;;;;;;;4.65;3.05;;;32.00;41.00;;;;;;1825798;78;21122;-67
2022/06/30 11:53:02;;;;;;;5.33;2.60;;;32.00;41.00;;;;;;1825616;78;21118;-66
2022/06/30 11:55:32;;;;;;;7.03;3.22;;;31.90;40.20;;;;;;1825795;78;21087;-66
2022/06/30 11:58:01;;;;;;;8.15;3.60;;;32.00;40.50;;;;;;1825836;78;21149;-66
2022/06/30 12:00:33;;;;;;;9.88;3.22;;;32.00;40.10;;;;;;1825607;77;21035;-66
2022/06/30 12:03:04;;;;;;;4.78;2.58;;;32.10;40.50;;;;;;1825746;78;21096;-66
2022/06/30 12:05:36;;;;;;;3.75;3.08;;;32.20;40.20;;;;;;1825824;78;21031;-66
2022/06/30 12:08:04;;;;;;;5.00;2.67;;;32.20;39.20;;;;;;1825717;78;21532;-66
2022/06/30 12:10:37;;;;;;;3.10;2.42;;;32.10;39.00;;;;;;1825817;78;21051;-66
2022/06/30 12:13:06;;;;;;;3.52;2.80;;;32.00;38.90;;;;;;1825842;78;21050;-66
2022/06/30 12:15:36;;;;;;;2.62;2.37;;;32.00;38.90;;;;;;1824964;78;21106;-66
2022/06/30 12:18:06;;;;;;;8.53;2.70;;;31.90;38.60;;;;;;1824817;78;21097;-66
2022/06/30 12:20:36;;;;;;;3.65;2.40;;;31.90;39.20;;;;;;1825412;78;21113;-66
2022/06/30 12:23:06;;;;;;;6.62;2.85;;;31.90;39.00;;;;;;1826490;78;21094;-67
2022/06/30 12:25:35;;;;;;;10.13;7.87;;;32.00;39.60;;;;;;1826258;78;21105;-66
2022/06/30 12:28:05;;;;;;;3.45;2.67;;;32.00;39.90;;;;;;1826384;78;21140;-66
2022/06/30 12:30:37;;;;;;;4.85;3.42;;;32.20;39.30;;;;;;1826388;78;21117;-66
2022/06/30 12:33:08;;;;;;;3.62;2.30;;;32.20;38.70;;;;;;1826506;78;21108;-65
2022/06/30 12:35:38;;;;;;;8.48;2.60;;;32.10;38.00;;;;;;1826349;78;21031;-60
2022/06/30 12:38:16;;;;;;;3.40;2.80;;;32.00;37.40;;;;;;1826470;78;21121;-59
2022/06/30 12:40:47;;;;;;;6.70;3.83;;;32.10;38.00;;;;;;1826423;78;21038;-58
2022/06/30 12:43:17;;;;;;;4.45;2.75;;;32.10;38.30;;;;;;1826389;78;21133;-63
2022/06/30 12:45:57;;;;;;;6.95;2.65;;;32.10;38.10;;;;;;1826644;78;21137;-63
2022/06/30 12:48:53;;;;;;;3.02;1.98;;;32.10;37.80;;;;;;1826468;78;21046;-63
2022/06/30 12:51:39;;;;;;;7.17;2.70;;;32.20;37.00;;;;;;1826372;78;21038;-65
2022/06/30 12:54:10;;;;;;;3.62;2.15;;;32.10;36.90;;;;;;1826613;78;21066;-68
2022/06/30 12:56:41;;;;;;;4.92;2.40;;;32.10;37.80;;;;;;1826554;78;21331;-67
2022/06/30 12:59:12;;;;;;;5.58;2.40;;;32.10;37.70;;;;;;1888589;76;21054;-64
2022/06/30 13:01:44;;;;;;;3.67;1.82;;;32.10;37.50;;;;;;1887075;75;21140;-64
2022/06/30 13:04:18;;;;;;;3.55;1.60;;;32.10;36.50;;;;;;1865116;77;22049;-65
2022/06/30 13:06:50;;;;;;;1.70;1.60;;;32.10;36.80;;;;;;1865168;77;21080;-64
2022/06/30 13:09:25;;;;;;;5.90;2.33;;;32.00;36.50;;;;;;1865123;77;21077;-64
2022/06/30 13:11:59;;;;;;;9.15;8.20;;;31.90;36.30;;;;;;1864993;76;21104;-62
2022/06/30 13:14:38;;;;;;;7.03;2.58;;;32.00;36.40;;;;;;1933212;73;21053;-63
2022/06/30 13:17:07;;;;;;;5.05;1.98;;;32.10;36.10;;;;;;1938010;73;21009;-64